Thame, United Kingdom
Current Conditions -  °F | °C
As of 11:50 AM on Monday 24 Nov 2014 (Local Time) from EGUB Reporting Station
Broken Clouds Broken Clouds  
Wind Chill: 39°   Ceiling: 25000
Heat Index: 39°   Visibility: 6mi
Dew Point: 36°   Wind: 1mph
Humidity: 87%   Direction: 220°SW
Pressure: 30.33"   Gusts: NA
Location:  51.75°N, 0.98°W
Report Text: EGUB 241150Z 22001KT 9999 FEW001 BKN250 04/02 Q1027 BLU NOSIG
Loading
Personal Weather Stations






























Interactive Weather Map New forecast layout! Learn more

10-Day Weather Forecast

Advertisements
Track Severe Weather on mobile